createdAt,value
2023-09-05T00:04:48.356Z,45.35
2023-09-05T00:09:53.187Z,44.82
2023-09-05T00:14:57.007Z,44.48
2023-09-05T00:20:00.648Z,44.65
2023-09-05T00:25:06.620Z,45.04
2023-09-05T00:30:15.505Z,45.85
2023-09-05T00:35:19.271Z,45.28
2023-09-05T00:40:24.328Z,45.58
2023-09-05T00:45:28.012Z,45.38
2023-09-05T00:50:31.617Z,45.43
2023-09-05T00:55:36.635Z,45.39
2023-09-05T01:00:40.254Z,45.95
2023-09-05T01:05:48.568Z,47.59
2023-09-05T01:10:58.582Z,47.78
2023-09-05T01:16:02.238Z,46.99
2023-09-05T01:21:12.704Z,47.28
2023-09-05T01:26:18.342Z,48.03
2023-09-05T01:31:21.950Z,47.86
2023-09-05T01:36:25.997Z,48.09
2023-09-05T01:41:31.091Z,48.30
2023-09-05T01:46:34.722Z,47.86
2023-09-05T01:51:38.391Z,48.48
2023-09-05T01:56:43.410Z,46.84
2023-09-05T02:01:47.110Z,47.51
2023-09-05T02:06:53.038Z,46.71
2023-09-05T02:11:58.043Z,47.33
2023-09-05T02:17:01.889Z,46.20
2023-09-05T02:22:05.702Z,46.56
2023-09-05T02:27:10.793Z,48.00
2023-09-05T02:32:14.389Z,47.64
2023-09-05T02:37:17.985Z,48.20
2023-09-05T02:42:23.265Z,47.04
2023-09-05T02:47:26.758Z,46.77
2023-09-05T02:52:42.241Z,45.98
2023-09-05T02:57:53.548Z,47.80
2023-09-05T03:02:57.668Z,48.26
2023-09-05T03:08:01.348Z,46.70
2023-09-05T03:13:06.663Z,47.78
2023-09-05T03:18:12.707Z,46.29
2023-09-05T03:23:16.860Z,47.88
2023-09-05T03:28:22.946Z,48.77
2023-09-05T03:33:26.794Z,47.44
2023-09-05T03:38:31.173Z,47.21
2023-09-05T03:43:36.186Z,46.78
2023-09-05T03:48:40.099Z,48.36
2023-09-05T03:53:43.843Z,47.86
2023-09-05T03:58:48.842Z,49.01
2023-09-05T04:03:52.495Z,48.71
2023-09-05T04:08:56.145Z,47.89
2023-09-05T04:14:00.967Z,49.00
2023-09-05T04:19:04.636Z,49.06
2023-09-05T04:24:08.482Z,48.04
2023-09-05T04:29:13.529Z,48.41
2023-09-05T04:34:17.343Z,48.70
2023-09-05T04:39:20.973Z,49.06
2023-09-05T04:44:28.228Z,48.56
2023-09-05T04:49:31.915Z,49.48
2023-09-05T04:54:35.601Z,49.71
2023-09-05T04:59:41.167Z,48.75
2023-09-05T05:04:46.675Z,49.09
2023-09-05T05:09:52.807Z,48.15
2023-09-05T05:14:58.126Z,49.23
2023-09-05T05:20:01.804Z,48.48
2023-09-05T05:25:08.451Z,48.63
2023-09-05T05:30:14.725Z,48.12
2023-09-05T05:35:18.824Z,48.18
2023-09-05T05:40:22.836Z,48.14
2023-09-05T05:45:27.916Z,46.71
2023-09-05T05:50:31.898Z,46.72
2023-09-05T05:55:35.567Z,46.91
2023-09-05T06:00:52.394Z,46.42
2023-09-05T06:05:56.813Z,46.66
2023-09-05T06:11:00.640Z,46.55
2023-09-05T06:16:06.567Z,46.05
2023-09-05T06:21:10.249Z,45.46
2023-09-05T06:26:13.866Z,44.54
2023-09-05T06:31:18.863Z,44.49
2023-09-05T06:36:23.272Z,43.21
2023-09-05T06:41:30.716Z,43.50
2023-09-05T06:46:37.523Z,42.61
2023-09-05T06:51:43.065Z,42.90
2023-09-05T06:56:48.097Z,42.04
2023-09-05T07:01:53.249Z,42.80
2023-09-05T07:06:56.974Z,41.24
2023-09-05T07:12:00.576Z,40.80
2023-09-05T07:17:08.205Z,40.66
2023-09-05T07:22:11.865Z,40.93
2023-09-05T07:27:16.879Z,41.02
2023-09-05T07:32:23.360Z,40.22
2023-09-05T07:37:27.121Z,39.49
2023-09-05T07:42:30.722Z,39.54
2023-09-05T07:47:35.810Z,38.92
2023-09-05T07:52:39.828Z,37.68
2023-09-05T07:57:43.479Z,37.63
2023-09-05T08:02:48.585Z,37.76
2023-09-05T08:07:52.139Z,37.76
2023-09-05T08:12:56.349Z,36.97
2023-09-05T08:18:01.408Z,35.53
2023-09-05T08:23:06.202Z,35.32
2023-09-05T08:28:10.443Z,35.27
2023-09-05T08:33:16.055Z,34.46
2023-09-05T08:38:20.182Z,34.04
2023-09-05T08:43:23.856Z,32.83
2023-09-05T08:48:39.601Z,32.50
2023-09-05T08:53:57.219Z,32.37
2023-09-05T08:59:02.945Z,31.73
2023-09-05T09:04:11.573Z,30.46
2023-09-05T09:09:36.908Z,30.24
2023-09-05T09:14:40.548Z,29.90
2023-09-05T09:19:45.594Z,29.91
2023-09-05T09:24:52.530Z,29.19
2023-09-05T09:29:56.441Z,29.59
2023-09-05T09:35:02.029Z,29.03
2023-09-05T09:40:07.603Z,28.80
2023-09-05T09:45:14.196Z,28.14
2023-09-05T09:50:20.984Z,27.94
2023-09-05T09:55:27.375Z,27.42
2023-09-05T10:00:36.366Z,28.01
2023-09-05T10:05:43.519Z,27.25
2023-09-05T10:10:47.575Z,26.65
2023-09-05T10:15:51.444Z,27.63
2023-09-05T10:20:59.298Z,27.01
2023-09-05T10:26:04.935Z,26.25
2023-09-05T10:31:13.999Z,26.51
2023-09-05T10:36:48.889Z,25.54
2023-09-05T10:41:52.968Z,26.09
2023-09-05T10:46:56.590Z,26.44
2023-09-05T10:52:22.035Z,24.46
2023-09-05T10:57:36.475Z,25.74
2023-09-05T11:02:42.256Z,25.03
2023-09-05T11:07:47.834Z,25.10
2023-09-05T11:12:51.376Z,24.45
2023-09-05T11:18:01.369Z,24.76
2023-09-05T11:23:14.585Z,24.73
2023-09-05T11:28:18.946Z,24.36
2023-09-05T11:33:22.583Z,23.11
2023-09-05T11:38:29.466Z,22.50
2023-09-05T11:43:34.928Z,23.76
2023-09-05T11:48:38.889Z,22.80
2023-09-05T11:53:44.842Z,22.00
2023-09-05T11:58:48.680Z,21.75
2023-09-05T12:03:52.578Z,22.21
2023-09-05T12:09:00.105Z,22.14
2023-09-05T12:14:04.798Z,21.56
2023-09-05T12:19:09.544Z,22.10
2023-09-05T12:24:22.431Z,22.72
2023-09-05T12:29:38.498Z,21.90
2023-09-05T12:34:44.729Z,22.02
2023-09-05T12:39:51.903Z,20.59
2023-09-05T12:44:55.675Z,22.10
2023-09-05T12:50:11.275Z,21.02
2023-09-05T12:55:17.572Z,20.36
2023-09-05T13:00:21.481Z,21.08
2023-09-05T13:05:25.351Z,20.60
2023-09-05T13:10:31.983Z,20.67
2023-09-05T13:15:35.761Z,21.09
2023-09-05T13:20:39.897Z,20.55
2023-09-05T13:25:45.631Z,20.21
2023-09-05T13:30:50.046Z,21.16
2023-09-05T13:35:54.151Z,19.94
2023-09-05T13:40:59.306Z,20.94
2023-09-05T13:46:03.217Z,19.88
2023-09-05T13:51:07.272Z,21.02
2023-09-05T13:56:12.486Z,20.08
2023-09-05T14:01:17.048Z,19.98
2023-09-05T14:06:21.691Z,18.59
2023-09-05T14:11:29.649Z,20.17
2023-09-05T14:16:35.993Z,19.33
2023-09-05T14:21:39.965Z,20.19
2023-09-05T14:26:46.068Z,19.21
2023-09-05T14:31:52.754Z,20.40
2023-09-05T14:36:56.603Z,19.87
2023-09-05T14:42:01.732Z,19.14
2023-09-05T14:47:08.108Z,19.44
2023-09-05T14:52:11.735Z,20.10
2023-09-05T14:57:19.412Z,19.90
2023-09-05T15:02:23.318Z,20.18
2023-09-05T15:07:29.465Z,20.56
2023-09-05T15:12:34.715Z,20.23
2023-09-05T15:17:43.232Z,20.78
2023-09-05T15:22:49.985Z,20.48
2023-09-05T15:27:55.565Z,20.33
2023-09-05T15:32:59.473Z,20.94
2023-09-05T15:38:07.077Z,21.19
2023-09-05T15:43:12.518Z,20.93
2023-09-05T15:48:16.900Z,21.19
2023-09-05T15:53:21.792Z,22.93
2023-09-05T15:58:28.072Z,22.31
2023-09-05T16:03:32.336Z,23.07
2023-09-05T16:08:36.149Z,21.91
2023-09-05T16:13:42.055Z,23.63
2023-09-05T16:18:46.692Z,23.89
2023-09-05T16:23:50.529Z,24.55
2023-09-05T16:28:55.704Z,23.41
2023-09-05T16:34:01.025Z,24.49
2023-09-05T16:39:07.763Z,24.32
2023-09-05T16:44:14.009Z,25.66
2023-09-05T16:49:18.145Z,24.46
2023-09-05T16:54:22.406Z,25.33
2023-09-05T16:59:27.459Z,26.30
2023-09-05T17:04:32.258Z,25.94
2023-09-05T17:09:35.891Z,26.00
2023-09-05T17:14:41.443Z,26.80
2023-09-05T17:19:47.076Z,26.75
2023-09-05T17:24:50.867Z,27.17
2023-09-05T17:29:56.022Z,28.83
2023-09-05T17:34:59.723Z,28.61
2023-09-05T17:40:03.795Z,29.16
2023-09-05T17:45:10.591Z,29.65
2023-09-05T17:50:14.387Z,30.82
2023-09-05T17:55:18.126Z,31.61
2023-09-05T18:00:25.038Z,33.38
2023-09-05T18:05:28.932Z,34.39
2023-09-05T18:10:32.676Z,35.06
2023-09-05T18:15:39.233Z,35.78
2023-09-05T18:20:43.437Z,35.82
2023-09-05T18:25:47.285Z,36.33
2023-09-05T18:30:52.433Z,37.39
2023-09-05T18:35:56.172Z,37.30
2023-09-05T18:41:00.596Z,38.31
2023-09-05T18:46:05.740Z,38.67
2023-09-05T18:51:10.869Z,38.76
2023-09-05T18:56:14.612Z,39.39
2023-09-05T19:01:20.392Z,39.26
2023-09-05T19:06:24.179Z,39.77
2023-09-05T19:11:27.720Z,39.60
2023-09-05T19:16:42.898Z,40.40
2023-09-05T19:21:47.506Z,39.70
2023-09-05T19:26:52.304Z,39.33
2023-09-05T19:31:57.350Z,39.79
2023-09-05T19:37:00.992Z,39.20
2023-09-05T19:42:05.023Z,38.53
2023-09-05T19:47:12.445Z,38.29
2023-09-05T19:52:16.246Z,39.00
2023-09-05T19:57:19.958Z,39.12
2023-09-05T20:02:25.268Z,39.18
2023-09-05T20:07:28.909Z,38.49
2023-09-05T20:12:32.693Z,39.57
2023-09-05T20:17:41.665Z,40.18
2023-09-05T20:22:45.983Z,40.71
2023-09-05T20:27:49.769Z,40.56
2023-09-05T20:32:56.224Z,41.46
2023-09-05T20:38:00.246Z,41.91
2023-09-05T20:43:03.822Z,42.14
2023-09-05T20:48:10.342Z,42.66
2023-09-05T20:53:14.266Z,43.11
2023-09-05T20:58:18.045Z,42.83
2023-09-05T21:03:23.286Z,43.41
2023-09-05T21:08:27.350Z,42.71
2023-09-05T21:13:33.463Z,43.62
2023-09-05T21:18:39.587Z,43.57
2023-09-05T21:23:43.440Z,44.11
2023-09-05T21:28:47.075Z,42.99
2023-09-05T21:33:52.007Z,44.05
2023-09-05T21:38:55.624Z,43.05
2023-09-05T21:43:59.182Z,43.18
2023-09-05T21:49:04.422Z,43.13
2023-09-05T21:54:10.285Z,44.39
2023-09-05T21:59:14.205Z,44.11
2023-09-05T22:04:19.228Z,43.83
2023-09-05T22:09:22.827Z,44.60
2023-09-05T22:14:26.453Z,45.52
2023-09-05T22:19:35.610Z,45.49
2023-09-05T22:24:40.383Z,45.30
2023-09-05T22:29:44.380Z,45.00
2023-09-05T22:34:52.115Z,45.98
2023-09-05T22:39:55.962Z,45.20
2023-09-05T22:44:59.572Z,45.47
2023-09-05T22:50:06.417Z,45.80
2023-09-05T22:55:10.422Z,46.19
2023-09-05T23:00:15.711Z,45.29
2023-09-05T23:05:20.816Z,46.16
2023-09-05T23:10:27.678Z,44.80
2023-09-05T23:15:31.527Z,46.14
2023-09-05T23:20:40.149Z,46.07
2023-09-05T23:25:48.493Z,44.91
2023-09-05T23:30:52.183Z,45.93
2023-09-05T23:35:58.953Z,46.02
2023-09-05T23:41:04.742Z,46.45
2023-09-05T23:46:08.570Z,47.04
2023-09-05T23:51:13.653Z,47.68
2023-09-05T23:56:17.346Z,46.10
